Flight Track Log - Related Links

Times and Time Zones

All times are in EDT time to prevent confusion due to time zone crossing. See the N260AJ flight status page for this flight to view local times or setup timezone preferences in your user account.

Time Position Orientation Groundspeed Altitude Reporting Facility
EDT Latitude Longitude Course Direction KTS MPH feet Rate Location/Type
Mon 10:31:10 PM 44.8625 -93.1747 128° Southeast 204 235 2,900  Level Minneapolis Center
Mon 10:32:11 PM 44.8256 -93.1083 128° Southeast 226 260 7,300 4,672 Climbing Minneapolis Center
Mon 10:33:12 PM 44.7728 -93.1883 227° Southwest 253 291 12,400 4,180 Climbing Minneapolis Center
Mon 10:34:13 PM 44.7414 -93.2942 247° West 296 341 15,800 3,098 Climbing Minneapolis Center
Mon 10:35:14 PM 44.7111 -93.4036 249° West 326 375 18,700 3,148 Climbing Minneapolis Center
Mon 10:36:15 PM 44.6753 -93.5272 248° West 340 391 22,200 3,317 Climbing Minneapolis Center
Mon 10:37:17 PM 44.6372 -93.6586 248° West 358 412 25,500 3,659 Climbing Minneapolis Center
Mon 10:38:18 PM 44.5789 -93.8056 241° Southwest 361 415 29,700 3,590 Climbing Minneapolis Center
Mon 10:39:19 PM 44.5314 -93.9261 241° Southwest 357 411 32,800 2,410 Climbing Minneapolis Center
Mon 10:40:20 PM 44.4844 -94.0464 241° Southwest 354 407 34,600 1,672 Climbing Minneapolis Center
Mon 10:41:21 PM 44.4311 -94.1769 240° Southwest 377 434 36,200 1,475 Climbing Minneapolis Center
Mon 10:42:22 PM 44.3756 -94.3147 241° Southwest 401 461 37,600 1,230 Climbing Minneapolis Center
Mon 10:43:23 PM 44.3181 -94.4567 241° Southwest 419 482 38,700 1,180 Climbing Minneapolis Center
Mon 10:44:24 PM 44.2586 -94.6003 240° Southwest 426 490 40,000 634 Climbing Minneapolis Center
Mon 10:45:26 PM 44.1933 -94.7628 241° Southwest 432 497 40,000  Level Minneapolis Center
Mon 10:47:00 PM 44.1194 -94.9938 239° Southwest  Level FlightAware Approximate
Mon 10:47:28 PM 44.0728 -95.0572 239° Southwest 436 502 40,000  Level Minneapolis Center
Mon 10:48:29 PM 44.0117 -95.2047 240° Southwest 439 505 40,000  Level Minneapolis Center
Mon 10:49:30 PM 43.9494 -95.3528 240° Southwest 442 509 40,000  Level Minneapolis Center
Mon 10:50:31 PM 43.8992 -95.4706 239° Southwest 441 507 40,000  Level Minneapolis Center
Mon 10:51:32 PM 43.8244 -95.6467 240° Southwest 440 506 40,000  Level Minneapolis Center
Mon 10:52:34 PM 43.7631 -95.7931 240° Southwest 437 503 40,000  Level Minneapolis Center
Mon 10:53:35 PM 43.7008 -95.9372 239° Southwest 436 502 40,000  Level Minneapolis Center
Mon 10:54:36 PM 43.6389 -96.0831 240° Southwest 436 502 40,000  Level Minneapolis Center
Mon 10:55:37 PM 43.5758 -96.2269 239° Southwest 437 503 40,000  Level Minneapolis Center
Mon 10:56:39 PM 43.5014 -96.4014 240° Southwest 438 504 40,000  Level Minneapolis Center
Mon 10:57:40 PM 43.4381 -96.5447 239° Southwest 439 505 40,000  Level Minneapolis Center
Mon 10:58:41 PM 43.3750 -96.6889 239° Southwest 439 505 40,000  Level Minneapolis Center
Mon 10:59:42 PM 43.3111 -96.8347 239° Southwest 441 507 40,000  Level Minneapolis Center
Mon 11:00:45 PM 43.2469 -96.9792 239° Southwest 442 509 40,000  Level Minneapolis Center
Mon 11:01:46 PM 43.1828 -97.1250 239° Southwest 446 513 40,000  Level Minneapolis Center
Mon 11:02:48 PM 43.1175 -97.2681 238° Southwest 445 512 40,000  Level Minneapolis Center
Mon 11:03:49 PM 43.0536 -97.4131 239° Southwest 445 512 40,000  Level Minneapolis Center
Mon 11:04:50 PM 42.9903 -97.5581 239° Southwest 444 511 40,000  Level Minneapolis Center
Mon 11:05:51 PM 42.9125 -97.7283 238° Southwest 442 509 40,000  Level Minneapolis Center
Mon 11:07:05 PM 42.8486 -97.8706 239° Southwest 441 507 40,000  Level Minneapolis Center
Mon 11:08:06 PM 42.7697 -98.0383 237° Southwest 439 505 40,000  Level Minneapolis Center
Mon 11:09:07 PM 42.7064 -98.1792 239° Southwest 438 504 40,000  Level Minneapolis Center
Mon 11:10:08 PM 42.6372 -98.3281 238° Southwest 437 503 40,000  Level Minneapolis Center
Mon 11:11:10 PM 42.5731 -98.4681 238° Southwest 438 504 40,000  Level Minneapolis Center
Mon 11:12:11 PM 42.5078 -98.6078 238° Southwest 439 505 40,000  Level Minneapolis Center
Mon 11:13:12 PM 42.4419 -98.7450 237° Southwest 436 502 40,000  Level Minneapolis Center
Mon 11:14:13 PM 42.3731 -98.8797 235° Southwest 437 503 40,000  Level Minneapolis Center
Mon 11:15:26 PM 42.3042 -99.0169 236° Southwest 440 506 40,000  Level Minneapolis Center
Mon 11:16:28 PM 42.2206 -99.1803 235° Southwest 442 509 40,000  Level Minneapolis Center
Mon 11:17:52 PM 42.1233 -99.3700 235° Southwest 439 505 40,000  Level Denver Center
Mon 11:18:54 PM 42.0539 -99.5069 236° Southwest 443 510 40,000  Level Denver Center
Mon 11:19:55 PM 41.9836 -99.6425 235° Southwest 444 511 40,000  Level Denver Center
Mon 11:20:56 PM 41.9078 -99.7878 235° Southwest 441 507 40,000  Level Denver Center
Mon 11:21:57 PM 41.8297 -99.9372 235° Southwest 440 506 40,000  Level Denver Center
Mon 11:22:59 PM 41.7633 -100.0669 236° Southwest 441 507 40,000  Level Denver Center
Mon 11:24:00 PM 41.6847 -100.2158 235° Southwest 440 506 40,000  Level Denver Center
Mon 11:25:01 PM 41.6167 -100.3419 234° Southwest 439 505 40,000  Level Denver Center
Mon 11:26:02 PM 41.5500 -100.4694 235° Southwest 438 504 40,000  Level Denver Center
Mon 11:27:04 PM 41.4714 -100.6172 235° Southwest 439 505 40,000  Level Denver Center
Mon 11:28:05 PM 41.4050 -100.7408 234° Southwest 432 497 40,000  Level Denver Center
Mon 11:29:06 PM 41.3258 -100.8869 234° Southwest 437 503 40,000  Level Denver Center
Mon 11:30:08 PM 41.2583 -101.0131 235° Southwest 439 505 40,000  Level Denver Center
Mon 11:31:09 PM 41.1911 -101.1372 234° Southwest 437 503 40,000  Level Denver Center
Mon 11:32:10 PM 41.1122 -101.2828 234° Southwest 439 505 40,000  Level Denver Center
Mon 11:33:11 PM 41.0436 -101.4075 234° Southwest 439 505 40,000  Level Denver Center
Mon 11:34:13 PM 40.9642 -101.5531 234° Southwest 439 505 40,000  Level Denver Center
Mon 11:35:14 PM 40.8953 -101.6786 234° Southwest 441 507 40,000  Level Denver Center
Mon 11:36:15 PM 40.8150 -101.8253 234° Southwest 442 509 40,000  Level Denver Center
Mon 11:37:16 PM 40.7458 -101.9492 234° Southwest 439 505 40,000  Level Denver Center
Mon 11:38:18 PM 40.6778 -102.0711 234° Southwest 435 501 40,000  Level Denver Center
Mon 11:39:19 PM 40.5961 -102.2122 233° Southwest 435 501 40,000  Level Denver Center
Mon 11:40:20 PM 40.5286 -102.3331 234° Southwest 431 496 40,000  Level Denver Center
Mon 11:41:22 PM 40.4492 -102.4739 233° Southwest 430 495 40,000  Level Denver Center
Mon 11:42:23 PM 40.3803 -102.5933 233° Southwest 430 495 40,000  Level Denver Center
Mon 11:43:24 PM 40.3028 -102.7286 233° Southwest 429 494 40,000  Level Denver Center
Mon 11:44:25 PM 40.2550 -102.8131 233° Southwest 429 494 40,000  Level Denver Center
Mon 11:45:27 PM 40.1600 -102.9831 234° Southwest 431 496 40,000  Level Denver Center
Mon 11:46:28 PM 40.0861 -103.1083 232° Southwest 432 497 40,000  Level Denver Center
Mon 11:47:29 PM 40.0128 -103.2353 233° Southwest 434 499 40,000  Level Denver Center
Mon 11:48:31 PM 39.9389 -103.3594 232° Southwest 430 495 40,000  Level Denver Center
Mon 11:49:32 PM 39.8644 -103.4867 233° Southwest 438 504 40,000  Level Denver Center
Mon 11:50:33 PM 39.7911 -103.6119 233° Southwest 433 498 40,000  Level Denver Center
Mon 11:51:34 PM 39.7167 -103.7381 233° Southwest 435 501 40,000  Level Denver Center
Mon 11:52:36 PM 39.6428 -103.8653 233° Southwest 435 501 40,000  Level Denver Center
Mon 11:53:37 PM 39.5689 -103.9894 232° Southwest 431 496 40,000  Level Denver Center
Mon 11:54:38 PM 39.4944 -104.1122 232° Southwest 427 491 40,000  Level Denver Center
Mon 11:55:40 PM 39.4200 -104.2364 232° Southwest 431 496 40,000  Level Denver Center
Mon 11:56:41 PM 39.3458 -104.3597 232° Southwest 429 494 40,000  Level Denver Center
Mon 11:57:42 PM 39.2719 -104.4831 232° Southwest 427 491 40,000  Level Denver Center
Mon 11:58:43 PM 39.1972 -104.6064 232° Southwest 429 494 40,000  Level Denver Center
Mon 11:59:45 PM 39.1222 -104.7292 232° Southwest 428 493 40,000  Level Denver Center
Tue 12:00:46 AM 39.0483 -104.8514 232° Southwest 426 490 40,000  Level Denver Center
Tue 12:01:47 AM 38.9731 -104.9722 231° Southwest 426 490 40,000  Level Denver Center
Tue 12:02:48 AM 38.8989 -105.0931 232° Southwest 427 491 40,000  Level Denver Center
Tue 12:03:49 AM 38.8239 -105.2153 232° Southwest 431 496 40,000  Level Denver Center
Tue 12:04:51 AM 38.7483 -105.3367 231° Southwest 432 497 40,000  Level Denver Center
Tue 12:05:52 AM 38.6600 -105.4800 232° Southwest 436 502 40,000  Level Denver Center
Tue 12:06:53 AM 38.5831 -105.6011 231° Southwest 434 499 40,000  Level Denver Center
Tue 12:08:06 AM 38.5078 -105.7233 232° Southwest 434 499 40,000  Level Denver Center
Tue 12:09:07 AM 38.4294 -105.8786 237° Southwest 430 495 40,000  Level Denver Center
Tue 12:10:09 AM 38.3658 -106.0017 237° Southwest 435 501 40,000  Level Denver Center
Tue 12:11:10 AM 38.3033 -106.1225 237° Southwest 431 496 40,000  Level Denver Center
Tue 12:12:11 AM 38.2300 -106.2597 236° Southwest 433 498 40,000  Level Denver Center
Tue 12:13:12 AM 38.1642 -106.3861 237° Southwest 428 493 40,000  Level Denver Center
Tue 12:14:13 AM 38.0936 -106.5211 236° Southwest 419 482 40,000  Level Denver Center
Tue 12:15:14 AM 38.0314 -106.6392 236° Southwest 420 483 40,000  Level Denver Center
Tue 12:16:15 AM 37.9683 -106.7569 236° Southwest 422 486 40,000  Level Denver Center
Tue 12:17:16 AM 37.8944 -106.8953 236° Southwest 425 489 40,000  Level Denver Center
Tue 12:18:18 AM 37.8314 -107.0139 236° Southwest 423 487 40,000  Level Denver Center
Tue 12:19:19 AM 37.7622 -107.1439 236° Southwest 423 487 40,000  Level Denver Center
Tue 12:20:20 AM 37.6983 -107.2594 235° Southwest 419 482 40,000  Level Denver Center
Tue 12:21:21 AM 37.6258 -107.3939 236° Southwest 415 478 40,000  Level Denver Center
Tue 12:22:22 AM 37.5642 -107.5078 236° Southwest 412 474 40,000  Level Denver Center
Tue 12:23:23 AM 37.5008 -107.6231 235° Southwest 418 481 40,000  Level Denver Center
Tue 12:24:24 AM 37.4269 -107.7572 235° Southwest 420 483 40,000  Level Denver Center
Tue 12:25:25 AM 37.3628 -107.8733 235° Southwest 421 484 40,000  Level Denver Center
Tue 12:26:26 AM 37.2997 -107.9897 236° Southwest 421 484 40,000  Level Denver Center
Tue 12:27:27 AM 37.2258 -108.1228 235° Southwest 419 482 40,000  Level Denver Center
Tue 12:28:28 AM 37.1644 -108.2331 235° Southwest 406 467 40,000  Level Denver Center
Tue 12:29:29 AM 37.0925 -108.3617 235° Southwest 404 465 40,000  Level Denver Center
Tue 12:30:30 AM 37.0308 -108.4700 235° Southwest 402 463 40,000  Level Denver Center
Tue 12:31:31 AM 36.9689 -108.5794 235° Southwest 402 463 40,000  Level Denver Center
Tue 12:32:32 AM 36.8964 -108.7089 235° Southwest 406 467 40,000  Level Denver Center
Tue 12:33:33 AM 36.8339 -108.8197 235° Southwest 408 470 40,000  Level Denver Center
Tue 12:34:34 AM 36.7714 -108.9306 235° Southwest 409 471 40,000  Level Denver Center
Tue 12:35:35 AM 36.6975 -109.0600 235° Southwest 411 473 40,000  Level Denver Center
Tue 12:36:36 AM 36.6350 -109.1692 235° Southwest 409 471 40,000  Level Denver Center
Tue 12:37:37 AM 36.5608 -109.2989 235° Southwest 413 475 40,000  Level Denver Center
Tue 12:38:38 AM 36.4969 -109.4111 235° Southwest 417 480 40,000  Level Denver Center
Tue 12:39:38 AM 36.4319 -109.5217 234° Southwest 417 480 40,000 -347 Level Denver Center
Tue 12:40:39 AM 36.3594 -109.6472 234° Southwest 404 465 39,300 -1,082 Descending Denver Center
Tue 12:41:40 AM 36.3011 -109.7492 235° Southwest 388 447 37,800 -1,475 Descending Denver Center
Tue 12:42:41 AM 36.2433 -109.8461 234° Southwest 375 432 36,300 -1,574 Descending Denver Center
Tue 12:43:42 AM 36.1767 -109.9617 234° Southwest 371 427 34,600 -1,140 Descending Denver Center
Tue 12:44:42 AM 36.1189 -110.0594 234° Southwest 369 425 34,000 -298 Descending Denver Center
Tue 12:45:43 AM 36.0589 -110.1622 234° Southwest 369 425 34,000  Level Denver Center
Tue 12:46:44 AM 35.9972 -110.2681 234° Southwest 375 432 34,000  Level Denver Center
Tue 12:47:45 AM 35.9436 -110.3561 233° Southwest 388 447 34,000  Level Denver Center
Tue 12:48:45 AM 35.8647 -110.4886 234° Southwest 397 457 34,000  Level Denver Center
Tue 12:49:03 AM 35.8411 -110.5203 227° Southwest 396 456 34,000  Level Albuquerque Center
Tue 12:50:03 AM 35.7431 -110.6175 219° Southwest 408 470 34,000  Level Albuquerque Center
Tue 12:51:04 AM 35.6528 -110.6917 214° Southwest 407 468 34,000  Level Albuquerque Center
Tue 12:52:04 AM 35.5633 -110.7669 214° Southwest 407 468 34,000  Level Albuquerque Center
Tue 12:53:05 AM 35.4603 -110.8558 215° Southwest 404 465 34,000  Level Albuquerque Center
Tue 12:54:06 AM 35.3736 -110.9311 215° Southwest 401 461 34,000  Level Albuquerque Center
Tue 12:55:06 AM 35.2847 -111.0042 214° Southwest 400 460 34,000  Level Albuquerque Center
Tue 12:56:07 AM 35.1908 -111.0875 216° Southwest 396 456 34,000  Level Albuquerque Center
Tue 12:57:07 AM 35.1003 -111.1686 216° Southwest 400 460 34,000  Level Albuquerque Center
Tue 12:58:08 AM 35.0086 -111.2472 215° Southwest 402 463 34,000 -1,180 Level Albuquerque Center
Tue 12:59:09 AM 34.9164 -111.3239 214° Southwest 403 464 31,600 -2,579 Descending Albuquerque Center
Tue 01:00:09 AM 34.8239 -111.4014 215° Southwest 403 464 28,800 -2,777 Descending Albuquerque Center
Tue 01:01:10 AM 34.7308 -111.4797 215° Southwest 405 466 26,000 -2,678 Descending Albuquerque Center
Tue 01:02:10 AM 34.6403 -111.5556 215° Southwest 402 463 23,400 -2,579 Descending Albuquerque Center
Tue 01:03:11 AM 34.5528 -111.6292 215° Southwest 393 452 20,800 -2,529 Descending Albuquerque Center
Tue 01:04:11 AM 34.4689 -111.6986 214° Southwest 381 438 18,300 -2,380 Descending Albuquerque Center
Tue 01:05:12 AM 34.3878 -111.7661 214° Southwest 364 419 16,000 -2,262 Descending Albuquerque Center
Tue 01:06:13 AM 34.3111 -111.8300 215° Southwest 346 398 13,700 -2,083 Descending Albuquerque Center
Tue 01:07:13 AM 34.2414 -111.8869 214° Southwest 318 366 11,800 -1,339 Descending Albuquerque Center
Tue 01:08:14 AM 34.1636 -111.9283 204° Southwest 269 310 11,000 -942 Descending Albuquerque Center
Tue 01:09:14 AM 34.0936 -111.9328 183° South 256 295 9,900 -1,438 Descending Albuquerque Center
Tue 01:10:15 AM 34.0236 -111.9333 180° South 255 293 8,100 -934 Descending Albuquerque Center
Tue 01:11:16 AM 33.9586 -111.9328 180° South 242 278 8,000 -545 Descending Albuquerque Center
Tue 01:12:16 AM 33.8947 -111.9292 177° South 235 270 7,000 -992 Descending Albuquerque Center
Tue 01:13:17 AM 33.8361 -111.9167 170° South 222 255 6,000 -1,190 Descending Albuquerque Center
Tue 01:14:17 AM 33.7806 -111.8939 161° South 214 246 4,600 -1,190 Descending Albuquerque Center
Tue 01:15:18 AM 33.7294 -111.8881 175° South 198 228 3,600 -836 Descending Albuquerque Center
Tue 01:16:19 AM 33.6847 -111.8828 174° South 176 203 2,900 -744 Descending Albuquerque Center
Tue 01:17:19 AM 33.6467 -111.8839 181° South 158 182 2,100 -694 Descending Albuquerque Center
Tue 01:18:20 AM 33.6147 -111.9133 218° Southwest 148 170 1,500 -590 Descending Albuquerque Center

Login

Don't have an account? Register now (free) for customized features, flight alerts, and more!